createdAt,value
2023-03-30T00:01:10.603Z,99897.47
2023-03-30T00:03:39.642Z,99890.47
2023-03-30T00:06:08.814Z,99890.00
2023-03-30T00:08:37.910Z,99893.81
2023-03-30T00:11:07.669Z,99884.66
2023-03-30T00:13:37.452Z,99891.03
2023-03-30T00:16:08.437Z,99881.63
2023-03-30T00:18:37.022Z,99885.41
2023-03-30T00:21:05.785Z,99888.25
2023-03-30T00:23:34.113Z,99891.19
2023-03-30T00:26:02.172Z,99882.66
2023-03-30T00:28:30.836Z,99881.84
2023-03-30T00:30:59.688Z,99875.81
2023-03-30T00:33:44.164Z,99886.97
2023-03-30T00:36:14.162Z,99875.69
2023-03-30T00:38:41.997Z,99880.06
2023-03-30T00:41:10.180Z,99868.72
2023-03-30T00:44:01.202Z,99873.34
2023-03-30T00:46:30.815Z,99867.56
2023-03-30T00:49:05.213Z,99870.72
2023-03-30T00:51:35.899Z,99856.81
2023-03-30T00:54:08.316Z,99858.56
2023-03-30T00:56:36.749Z,99865.81
2023-03-30T00:59:05.700Z,99870.06
2023-03-30T01:01:39.463Z,99875.50
2023-03-30T01:04:11.019Z,99877.72
2023-03-30T01:06:43.539Z,99857.59
2023-03-30T01:09:12.177Z,99849.28
2023-03-30T01:11:41.481Z,99840.69
2023-03-30T01:14:12.361Z,99861.97
2023-03-30T01:16:47.538Z,99878.19
2023-03-30T01:19:48.197Z,99863.16
2023-03-30T01:22:36.770Z,99870.91
2023-03-30T01:25:39.496Z,99873.06
2023-03-30T01:28:26.375Z,99873.06
2023-03-30T01:31:14.792Z,99870.38
2023-03-30T01:34:12.435Z,99865.25
2023-03-30T01:37:06.414Z,99870.22
2023-03-30T01:39:45.326Z,99866.78
2023-03-30T01:42:22.462Z,99846.16
2023-03-30T01:44:57.637Z,99837.34
2023-03-30T01:47:34.923Z,99848.09
2023-03-30T01:50:07.504Z,99854.81
2023-03-30T01:52:41.307Z,99856.25
2023-03-30T01:55:18.457Z,99866.69
2023-03-30T01:57:52.806Z,99877.44
2023-03-30T02:00:24.772Z,99879.72
2023-03-30T02:02:58.532Z,99874.09
2023-03-30T02:05:28.566Z,99877.28
2023-03-30T02:08:01.811Z,99875.66
2023-03-30T02:10:35.488Z,99870.72
2023-03-30T02:13:06.189Z,99872.56
2023-03-30T02:15:38.572Z,99859.78
2023-03-30T02:18:06.679Z,99845.34
2023-03-30T02:20:36.460Z,99825.84
2023-03-30T02:23:06.632Z,99827.03
2023-03-30T02:25:38.680Z,99833.94
2023-03-30T02:28:08.272Z,99843.69
2023-03-30T02:30:40.414Z,99842.06
2023-03-30T02:33:11.068Z,99842.66
2023-03-30T02:35:55.434Z,99831.63
2023-03-30T02:38:45.708Z,99830.34
2023-03-30T02:41:28.384Z,99857.59
2023-03-30T02:44:05.521Z,99871.00
2023-03-30T02:47:03.576Z,99859.47
2023-03-30T02:49:46.602Z,99858.28
2023-03-30T02:52:24.734Z,99853.16
2023-03-30T02:55:02.816Z,99859.38
2023-03-30T02:58:02.594Z,99870.72
2023-03-30T03:00:52.235Z,99876.28
2023-03-30T03:03:34.454Z,99884.78
2023-03-30T03:06:04.218Z,99880.34
2023-03-30T03:08:39.559Z,99883.59
2023-03-30T03:11:09.986Z,99866.28
2023-03-30T03:13:39.712Z,99864.69
2023-03-30T03:16:11.001Z,99856.09
2023-03-30T03:18:42.513Z,99859.75
2023-03-30T03:21:11.565Z,99862.41
2023-03-30T03:23:42.176Z,99865.03
2023-03-30T03:26:12.643Z,99858.78
2023-03-30T03:28:42.758Z,99851.81
2023-03-30T03:31:12.195Z,99843.31
2023-03-30T03:33:41.393Z,99829.38
2023-03-30T03:36:21.600Z,99810.63
2023-03-30T03:38:53.495Z,99795.66
2023-03-30T03:41:21.355Z,99793.38
2023-03-30T03:43:50.997Z,99788.72
2023-03-30T03:46:20.014Z,99784.66
2023-03-30T03:48:47.805Z,99768.25
2023-03-30T03:51:15.621Z,99757.94
2023-03-30T03:53:43.651Z,99758.03
2023-03-30T03:56:14.320Z,99756.41
2023-03-30T03:58:42.056Z,99762.91
2023-03-30T04:01:14.270Z,99755.72
2023-03-30T04:03:42.777Z,99739.75
2023-03-30T04:06:10.458Z,99732.78
2023-03-30T04:08:38.497Z,99732.50
2023-03-30T04:11:21.405Z,99723.50
2023-03-30T04:14:08.579Z,99717.44
2023-03-30T04:16:57.960Z,99702.50
2023-03-30T04:19:53.878Z,99708.50
2023-03-30T04:22:33.521Z,99707.81
2023-03-30T04:25:26.652Z,99708.22
2023-03-30T04:28:14.440Z,99700.47
2023-03-30T04:31:05.111Z,99704.84
2023-03-30T04:33:53.979Z,99712.13
2023-03-30T04:36:46.051Z,99732.22
2023-03-30T04:39:29.998Z,99727.69
2023-03-30T04:42:02.591Z,99734.00
2023-03-30T04:44:42.315Z,99745.66
2023-03-30T04:47:29.735Z,99751.09
2023-03-30T04:50:17.884Z,99762.19
2023-03-30T04:53:04.214Z,99762.72
2023-03-30T04:55:57.750Z,99766.44
2023-03-30T04:58:46.147Z,99775.19
2023-03-30T05:01:36.012Z,99768.25
2023-03-30T05:04:14.314Z,99770.28
2023-03-30T05:07:02.011Z,99774.56
2023-03-30T05:09:48.555Z,99765.22
2023-03-30T05:12:28.746Z,99768.38
2023-03-30T05:15:12.440Z,99767.34
2023-03-30T05:18:02.259Z,99770.22
2023-03-30T05:20:59.671Z,99770.78
2023-03-30T05:23:49.100Z,99783.19
2023-03-30T05:26:39.036Z,99786.31
2023-03-30T05:29:21.872Z,99799.13
2023-03-30T05:32:09.164Z,99796.97
2023-03-30T05:35:05.517Z,99812.13
2023-03-30T05:37:54.281Z,99809.69
2023-03-30T05:40:29.849Z,99818.59
2023-03-30T05:43:21.335Z,99834.16
2023-03-30T05:46:09.547Z,99835.00
2023-03-30T05:48:46.397Z,99845.69
2023-03-30T05:51:37.022Z,99860.59
2023-03-30T05:54:14.672Z,99859.69
2023-03-30T05:56:57.399Z,99854.66
2023-03-30T05:59:33.245Z,99869.59
2023-03-30T06:02:12.867Z,99860.56
2023-03-30T06:04:41.278Z,99850.28
2023-03-30T06:07:09.284Z,99841.78
2023-03-30T06:09:37.435Z,99844.34
2023-03-30T06:12:15.694Z,99845.25
2023-03-30T06:14:44.137Z,99841.91
2023-03-30T06:17:26.079Z,99853.09
2023-03-30T06:19:54.412Z,99863.25
2023-03-30T06:22:22.794Z,99861.38
2023-03-30T06:25:13.412Z,99855.69
2023-03-30T06:27:44.793Z,99838.09
2023-03-30T06:30:14.354Z,99835.53
2023-03-30T06:32:45.249Z,99831.31
2023-03-30T06:35:39.862Z,99840.59
2023-03-30T06:38:09.541Z,99825.47
2023-03-30T06:40:37.258Z,99823.06
2023-03-30T06:43:07.615Z,99819.06
2023-03-30T06:45:42.602Z,99811.22
2023-03-30T06:48:10.833Z,99826.91
2023-03-30T06:50:41.124Z,99825.75
2023-03-30T06:53:35.776Z,99823.91
2023-03-30T06:56:04.338Z,99814.41
2023-03-30T06:58:37.209Z,99811.06
2023-03-30T07:01:11.304Z,99819.41
2023-03-30T07:03:59.339Z,99828.19
2023-03-30T07:06:45.983Z,99828.34
2023-03-30T07:09:15.211Z,99834.72
2023-03-30T07:11:43.751Z,99831.34
2023-03-30T07:14:13.074Z,99822.84
2023-03-30T07:16:41.780Z,99818.09
2023-03-30T07:19:10.813Z,99813.09
2023-03-30T07:21:38.688Z,99806.56
2023-03-30T07:24:08.185Z,99774.69
2023-03-30T07:26:37.648Z,99747.50
2023-03-30T07:29:09.070Z,99751.69
2023-03-30T07:31:41.350Z,99755.63
2023-03-30T07:34:12.923Z,99779.66
2023-03-30T07:36:47.593Z,99794.25
2023-03-30T07:39:15.427Z,99782.75
2023-03-30T07:41:45.587Z,99769.97
2023-03-30T07:44:14.839Z,99771.75
2023-03-30T07:46:44.545Z,99777.91
2023-03-30T07:49:18.653Z,99775.22
2023-03-30T07:51:47.130Z,99775.06
2023-03-30T07:54:21.808Z,99792.16
2023-03-30T07:57:18.832Z,99795.66
2023-03-30T07:59:46.942Z,99803.69
2023-03-30T08:02:44.728Z,99796.00
2023-03-30T08:05:17.944Z,99775.69
2023-03-30T08:08:04.166Z,99795.25
2023-03-30T08:10:35.283Z,99803.03
2023-03-30T08:13:03.702Z,99816.34
2023-03-30T08:15:31.743Z,99811.50
2023-03-30T08:18:04.146Z,99814.00
2023-03-30T08:20:32.099Z,99814.13
2023-03-30T08:22:59.785Z,99816.97
2023-03-30T08:25:28.267Z,99811.81
2023-03-30T08:27:56.280Z,99824.47
2023-03-30T08:30:24.534Z,99825.06
2023-03-30T08:32:53.400Z,99834.84
2023-03-30T08:35:23.786Z,99835.88
2023-03-30T08:37:51.629Z,99834.31
2023-03-30T08:40:19.951Z,99831.50
2023-03-30T08:43:04.960Z,99834.69
2023-03-30T08:45:41.151Z,99833.81
2023-03-30T08:48:18.123Z,99844.94
2023-03-30T08:50:57.318Z,99846.69
2023-03-30T08:53:26.351Z,99828.84
2023-03-30T08:56:00.086Z,99819.78
2023-03-30T08:58:40.137Z,99839.50
2023-03-30T09:01:16.615Z,99853.25
2023-03-30T09:04:00.384Z,99852.28
2023-03-30T09:06:38.584Z,99841.69
2023-03-30T09:09:07.113Z,99840.34
2023-03-30T09:11:37.967Z,99830.59
2023-03-30T09:14:08.699Z,99804.88
2023-03-30T09:16:43.207Z,99839.00
2023-03-30T09:19:19.413Z,99861.41
2023-03-30T09:21:51.389Z,99855.91
2023-03-30T09:24:25.679Z,99847.47
2023-03-30T09:26:58.991Z,99865.22
2023-03-30T09:29:29.180Z,99865.34
2023-03-30T09:32:05.741Z,99853.47
2023-03-30T09:34:41.894Z,99854.00
2023-03-30T09:37:16.255Z,99866.53
2023-03-30T09:39:45.799Z,99878.13
2023-03-30T09:42:25.562Z,99880.00
2023-03-30T09:44:57.177Z,99872.59
2023-03-30T09:47:27.131Z,99865.25
2023-03-30T09:49:59.697Z,99853.81
2023-03-30T09:52:32.193Z,99875.53
2023-03-30T09:55:25.385Z,99877.78
2023-03-30T09:57:54.795Z,99887.97
2023-03-30T10:00:26.689Z,99884.34
2023-03-30T10:02:58.957Z,99882.81
2023-03-30T10:05:28.483Z,99884.13
2023-03-30T10:08:00.121Z,99880.47
2023-03-30T10:10:36.421Z,99871.88
2023-03-30T10:13:08.595Z,99869.38
2023-03-30T10:15:40.109Z,99873.59
2023-03-30T10:18:25.440Z,99877.56
2023-03-30T10:20:55.089Z,99874.88
2023-03-30T10:23:33.246Z,99878.13
2023-03-30T10:26:05.742Z,99883.59
2023-03-30T10:28:36.430Z,99874.88
2023-03-30T10:31:08.943Z,99871.19
2023-03-30T10:33:41.716Z,99866.09
2023-03-30T10:36:11.338Z,99863.22
2023-03-30T10:38:41.725Z,99863.31
2023-03-30T10:41:12.392Z,99879.28
2023-03-30T10:43:42.314Z,99880.91
2023-03-30T10:46:20.355Z,99881.25
2023-03-30T10:49:02.286Z,99878.44
2023-03-30T10:51:40.731Z,99873.97
2023-03-30T10:54:15.566Z,99868.31
2023-03-30T10:56:47.056Z,99865.44
2023-03-30T10:59:30.421Z,99867.97
2023-03-30T11:02:18.659Z,99873.00
2023-03-30T11:04:48.915Z,99853.81
2023-03-30T11:08:07.512Z,99872.53
2023-03-30T11:10:43.926Z,99877.66
2023-03-30T11:13:16.830Z,99870.72
2023-03-30T11:15:51.007Z,99881.78
2023-03-30T11:18:22.507Z,99881.25
2023-03-30T11:20:57.419Z,99882.50
2023-03-30T11:23:32.455Z,99880.31
2023-03-30T11:26:06.933Z,99879.91
2023-03-30T11:28:50.407Z,99873.81
2023-03-30T11:31:31.473Z,99878.75
2023-03-30T11:34:06.250Z,99870.25
2023-03-30T11:36:39.092Z,99878.28
2023-03-30T11:39:29.076Z,99869.50
2023-03-30T11:42:08.124Z,99868.25
2023-03-30T11:44:36.434Z,99870.66
2023-03-30T11:47:20.275Z,99867.31
2023-03-30T11:50:01.554Z,99854.75
2023-03-30T11:52:37.170Z,99845.47
2023-03-30T11:55:28.273Z,99847.50
2023-03-30T11:58:08.026Z,99839.81
2023-03-30T12:00:49.303Z,99835.50
2023-03-30T12:03:28.174Z,99828.97
2023-03-30T12:06:04.046Z,99830.03
2023-03-30T12:08:54.472Z,99823.72
2023-03-30T12:11:31.675Z,99819.31
2023-03-30T12:14:02.113Z,99810.41
2023-03-30T12:16:39.097Z,99806.84
2023-03-30T12:19:14.523Z,99821.66
2023-03-30T12:21:53.106Z,99829.56
2023-03-30T12:24:27.839Z,99826.00
2023-03-30T12:27:05.390Z,99810.44
2023-03-30T12:30:02.284Z,99805.06
2023-03-30T12:32:32.617Z,99809.34
2023-03-30T12:35:01.659Z,99804.44
2023-03-30T12:37:34.835Z,99788.69
2023-03-30T12:40:10.422Z,99785.19
2023-03-30T12:42:46.737Z,99783.38
2023-03-30T12:45:31.910Z,99789.06
2023-03-30T12:48:19.585Z,99780.78
2023-03-30T12:51:00.677Z,99776.59
2023-03-30T12:53:56.828Z,99773.00
2023-03-30T12:56:34.771Z,99774.69
2023-03-30T12:59:51.584Z,99775.06
2023-03-30T13:02:35.992Z,99777.19
2023-03-30T13:05:05.352Z,99769.13
2023-03-30T13:07:36.509Z,99764.72
2023-03-30T13:10:26.424Z,99748.19
2023-03-30T13:12:58.056Z,99765.63
2023-03-30T13:15:48.203Z,99746.06
2023-03-30T13:18:34.020Z,99743.41
2023-03-30T13:21:17.959Z,99754.22
2023-03-30T13:23:59.944Z,99769.19
2023-03-30T13:26:35.051Z,99758.28
2023-03-30T13:29:10.278Z,99761.44
2023-03-30T13:31:47.555Z,99751.38
2023-03-30T13:34:30.466Z,99734.31
2023-03-30T13:37:05.132Z,99731.03
2023-03-30T13:39:42.374Z,99720.69
2023-03-30T13:42:26.549Z,99714.44
2023-03-30T13:45:03.164Z,99708.25
2023-03-30T13:47:45.297Z,99712.06
2023-03-30T13:50:24.225Z,99708.28
2023-03-30T13:52:55.162Z,99706.94
2023-03-30T13:55:32.508Z,99714.47
2023-03-30T13:58:04.453Z,99704.59
2023-03-30T14:00:45.161Z,99715.00
2023-03-30T14:03:34.689Z,99724.88
2023-03-30T14:06:08.559Z,99742.03
2023-03-30T14:08:39.719Z,99734.81
2023-03-30T14:11:16.601Z,99758.34
2023-03-30T14:13:46.736Z,99757.47
2023-03-30T14:16:21.427Z,99777.47
2023-03-30T14:18:49.708Z,99781.78
2023-03-30T14:21:23.989Z,99805.19
2023-03-30T14:23:56.193Z,99840.03
2023-03-30T14:26:26.434Z,99829.56
2023-03-30T14:28:59.939Z,99811.56
2023-03-30T14:31:28.020Z,99797.66
2023-03-30T14:33:56.925Z,99783.44
2023-03-30T14:36:26.309Z,99792.50
2023-03-30T14:38:57.613Z,99779.97
2023-03-30T14:41:27.792Z,99791.56
2023-03-30T14:43:58.713Z,99785.25
2023-03-30T14:46:32.999Z,99784.91
2023-03-30T14:49:01.186Z,99781.69
2023-03-30T14:51:40.550Z,99774.25
2023-03-30T14:54:10.309Z,99780.56
2023-03-30T14:56:38.544Z,99772.16
2023-03-30T14:59:08.129Z,99782.88
2023-03-30T15:01:36.644Z,99795.28
2023-03-30T15:04:09.014Z,99792.28
2023-03-30T15:06:39.105Z,99804.63
2023-03-30T15:09:14.255Z,99802.81
2023-03-30T15:11:42.597Z,99788.53
2023-03-30T15:14:17.164Z,99794.53
2023-03-30T15:16:48.355Z,99811.81
2023-03-30T15:19:26.916Z,99798.34
2023-03-30T15:21:59.931Z,99796.47
2023-03-30T15:24:32.554Z,99795.47
2023-03-30T15:27:04.508Z,99800.97
2023-03-30T15:29:34.021Z,99800.28
2023-03-30T15:32:09.151Z,99809.00
2023-03-30T15:34:37.393Z,99807.06
2023-03-30T15:37:23.021Z,99796.50
2023-03-30T15:39:51.503Z,99809.47
2023-03-30T15:42:26.899Z,99808.94
2023-03-30T15:45:05.983Z,99812.03
2023-03-30T15:47:35.231Z,99807.59
2023-03-30T15:50:04.063Z,99799.03
2023-03-30T15:52:36.590Z,99808.63
2023-03-30T15:55:10.184Z,99807.94
2023-03-30T15:57:43.365Z,99810.19
2023-03-30T16:00:18.168Z,99804.34
2023-03-30T16:02:50.435Z,99808.78
2023-03-30T16:05:21.049Z,99807.69
2023-03-30T16:07:50.910Z,99803.13
2023-03-30T16:10:21.988Z,99813.06
2023-03-30T16:12:50.057Z,99799.91
2023-03-30T16:15:20.259Z,99813.41
2023-03-30T16:17:48.497Z,99813.78
2023-03-30T16:20:18.246Z,99810.34
2023-03-30T16:22:47.304Z,99818.09
2023-03-30T16:25:18.559Z,99820.84
2023-03-30T16:27:46.763Z,99851.00
2023-03-30T16:30:20.152Z,99873.00
2023-03-30T16:32:48.223Z,99890.69
2023-03-30T16:35:16.043Z,99881.66
2023-03-30T16:37:43.758Z,99878.41
2023-03-30T16:40:23.980Z,99876.47
2023-03-30T16:42:51.678Z,99870.81
2023-03-30T16:45:19.302Z,99876.69
2023-03-30T16:47:47.355Z,99869.97
2023-03-30T16:50:21.688Z,99869.28
2023-03-30T16:52:49.807Z,99875.56
2023-03-30T16:55:20.016Z,99860.59
2023-03-30T16:57:47.673Z,99859.78
2023-03-30T17:00:19.813Z,99852.94
2023-03-30T17:02:47.661Z,99856.06
2023-03-30T17:05:16.676Z,99847.03
2023-03-30T17:07:44.729Z,99862.00
2023-03-30T17:10:24.113Z,99875.09
2023-03-30T17:12:52.919Z,99864.00
2023-03-30T17:15:21.293Z,99875.91
2023-03-30T17:17:51.144Z,99880.53
2023-03-30T17:20:25.850Z,99881.75
2023-03-30T17:22:54.045Z,99880.13
2023-03-30T17:25:26.517Z,99888.97
2023-03-30T17:27:55.663Z,99885.44
2023-03-30T17:30:25.842Z,99901.88
2023-03-30T17:32:57.172Z,99889.41
2023-03-30T17:35:26.723Z,99904.50
2023-03-30T17:37:56.273Z,99903.38
2023-03-30T17:40:26.998Z,99897.97
2023-03-30T17:42:55.029Z,99901.13
2023-03-30T17:45:25.075Z,99906.41
2023-03-30T17:47:52.996Z,99919.81
2023-03-30T17:50:24.031Z,99914.94
2023-03-30T17:52:51.918Z,99906.38
2023-03-30T17:55:21.570Z,99916.16
2023-03-30T17:57:50.952Z,99920.16
2023-03-30T18:00:23.114Z,99920.72
2023-03-30T18:02:51.656Z,99924.19
2023-03-30T18:05:20.791Z,99928.06
2023-03-30T18:07:48.896Z,99922.75
2023-03-30T18:10:20.305Z,99917.13
2023-03-30T18:12:50.608Z,99924.44
2023-03-30T18:15:19.959Z,99925.19
2023-03-30T18:17:48.259Z,99925.63
2023-03-30T18:20:19.873Z,99922.78
2023-03-30T18:22:47.944Z,99926.94
2023-03-30T18:25:29.437Z,99936.44
2023-03-30T18:28:02.676Z,99932.88
2023-03-30T18:30:32.224Z,99938.75
2023-03-30T18:33:00.957Z,99935.25
2023-03-30T18:35:31.839Z,99942.19
2023-03-30T18:38:00.282Z,99958.75
2023-03-30T18:40:32.541Z,99973.13
2023-03-30T18:43:02.516Z,99971.75
2023-03-30T18:45:35.153Z,99970.91
2023-03-30T18:48:04.081Z,99966.69
2023-03-30T18:50:35.700Z,99967.25
2023-03-30T18:53:05.385Z,99968.19
2023-03-30T18:55:36.672Z,99959.25
2023-03-30T18:58:07.747Z,99967.72
2023-03-30T19:00:36.555Z,99961.81
2023-03-30T19:03:06.156Z,99945.91
2023-03-30T19:05:35.695Z,99945.19
2023-03-30T19:08:03.997Z,99942.25
2023-03-30T19:10:33.907Z,99948.56
2023-03-30T19:13:02.203Z,99945.78
2023-03-30T19:15:34.182Z,99948.16
2023-03-30T19:18:02.547Z,99944.81
2023-03-30T19:20:32.832Z,99947.91
2023-03-30T19:23:00.660Z,99954.38
2023-03-30T19:25:29.670Z,99955.25
2023-03-30T19:28:03.622Z,99950.47
2023-03-30T19:30:37.481Z,99954.66
2023-03-30T19:33:09.327Z,99947.25
2023-03-30T19:35:37.636Z,99943.19
2023-03-30T19:38:06.330Z,99944.69
2023-03-30T19:40:34.350Z,99949.00
2023-03-30T19:43:02.261Z,99943.28
2023-03-30T19:45:31.186Z,99948.16
2023-03-30T19:48:00.449Z,99944.59
2023-03-30T19:50:30.350Z,99940.41
2023-03-30T19:52:58.994Z,99943.19
2023-03-30T19:55:27.234Z,99942.13
2023-03-30T19:57:55.442Z,99937.06
2023-03-30T20:00:23.806Z,99939.28
2023-03-30T20:02:53.813Z,99939.28
2023-03-30T20:05:25.486Z,99942.47
2023-03-30T20:07:53.884Z,99942.94
2023-03-30T20:10:24.608Z,99935.19
2023-03-30T20:12:53.088Z,99933.38
2023-03-30T20:15:22.826Z,99931.63
2023-03-30T20:17:58.520Z,99930.66
2023-03-30T20:20:27.853Z,99927.56
2023-03-30T20:22:56.468Z,99930.25
2023-03-30T20:25:24.920Z,99931.09
2023-03-30T20:27:53.474Z,99924.88
2023-03-30T20:30:22.497Z,99925.56
2023-03-30T20:33:06.197Z,99958.53
2023-03-30T20:35:38.122Z,99966.91
2023-03-30T20:38:08.253Z,99969.69
2023-03-30T20:40:36.587Z,99966.78
2023-03-30T20:43:09.884Z,99956.50
2023-03-30T20:45:46.282Z,99946.72
2023-03-30T20:48:26.356Z,99945.16
2023-03-30T20:50:57.496Z,99938.50
2023-03-30T20:53:25.932Z,99936.47
2023-03-30T20:55:53.742Z,99929.00
2023-03-30T20:58:23.455Z,99920.13
2023-03-30T21:00:53.507Z,99920.53
2023-03-30T21:03:26.275Z,99909.44
2023-03-30T21:06:02.572Z,99911.94
2023-03-30T21:08:31.567Z,99909.34
2023-03-30T21:11:02.603Z,99908.06
2023-03-30T21:13:30.745Z,99911.19
2023-03-30T21:15:59.137Z,99908.13
2023-03-30T21:18:27.679Z,99900.97
2023-03-30T21:20:55.980Z,99901.19
2023-03-30T21:23:26.949Z,99896.16
2023-03-30T21:25:57.215Z,99879.81
2023-03-30T21:28:27.390Z,99885.28
2023-03-30T21:30:56.846Z,99879.47
2023-03-30T21:33:25.027Z,99874.34
2023-03-30T21:35:54.220Z,99876.88
2023-03-30T21:38:23.523Z,99875.19
2023-03-30T21:41:01.421Z,99861.50
2023-03-30T21:43:30.786Z,99863.19
2023-03-30T21:46:01.006Z,99860.84
2023-03-30T21:48:31.345Z,99850.66
2023-03-30T21:51:00.566Z,99840.00
2023-03-30T21:53:29.445Z,99840.19
2023-03-30T21:55:57.425Z,99834.88
2023-03-30T21:58:27.223Z,99835.00
2023-03-30T22:01:09.011Z,99823.97
2023-03-30T22:03:39.568Z,99821.78
2023-03-30T22:06:09.615Z,99825.47
2023-03-30T22:08:37.720Z,99828.31
2023-03-30T22:11:08.024Z,99827.78
2023-03-30T22:13:37.426Z,99819.31
2023-03-30T22:16:07.566Z,99818.56
2023-03-30T22:18:35.644Z,99814.22
2023-03-30T22:21:06.309Z,99805.47
2023-03-30T22:23:34.562Z,99809.81
2023-03-30T22:26:03.173Z,99797.22
2023-03-30T22:28:31.596Z,99804.81
2023-03-30T22:31:01.461Z,99796.03
2023-03-30T22:33:29.304Z,99801.34
2023-03-30T22:36:00.002Z,99798.06
2023-03-30T22:38:28.543Z,99791.16
2023-03-30T22:41:05.428Z,99789.63
2023-03-30T22:43:35.104Z,99791.38
2023-03-30T22:46:04.946Z,99787.53
2023-03-30T22:48:33.903Z,99780.06
2023-03-30T22:51:03.234Z,99775.84
2023-03-30T22:53:32.253Z,99768.06
2023-03-30T22:56:00.319Z,99768.06
2023-03-30T22:58:28.624Z,99762.19
2023-03-30T23:01:01.148Z,99759.81
2023-03-30T23:03:30.750Z,99761.44
2023-03-30T23:06:01.150Z,99753.63
2023-03-30T23:08:30.097Z,99753.63
2023-03-30T23:11:04.644Z,99754.59
2023-03-30T23:13:37.381Z,99745.06
2023-03-30T23:16:08.127Z,99744.13
2023-03-30T23:18:39.118Z,99736.28
2023-03-30T23:21:07.721Z,99736.16
2023-03-30T23:23:37.301Z,99722.56
2023-03-30T23:26:08.986Z,99718.97
2023-03-30T23:28:41.317Z,99706.81
2023-03-30T23:31:11.880Z,99709.44
2023-03-30T23:33:41.729Z,99706.97
2023-03-30T23:36:13.561Z,99695.81
2023-03-30T23:38:41.928Z,99698.41
2023-03-30T23:41:11.767Z,99693.22
2023-03-30T23:43:39.713Z,99688.69
2023-03-30T23:46:07.874Z,99684.94
2023-03-30T23:48:36.667Z,99679.63
2023-03-30T23:51:07.087Z,99671.00
2023-03-30T23:53:35.076Z,99673.53
2023-03-30T23:56:06.275Z,99675.38
2023-03-30T23:58:34.892Z,99669.59
